Time;durP1;ratioP1;P1;durP2;ratioP2;P2;SDS_P1;SDS_P2;PMS_P1;PMS_P2;Temp;Humidity;BMP_temperature;BMP_pressure;BME280_temperature;BME280_humidity;BME280_pressure;Samples;Min_cycle;Max_cycle;Signal;HPM_P1;HPM_P2
2021/09/09 00:01:06;;;;;;;14.60;5.73;;;;;;;13.79;100.00;-19525.50;5018701;28;20217;-67
2021/09/09 00:03:31;;;;;;;11.53;5.97;;;;;;;13.72;100.00;-19523.69;5019240;28;20080;-67
2021/09/09 00:05:57;;;;;;;13.87;5.90;;;;;;;13.67;100.00;-19522.22;5022653;28;20261;-67
2021/09/09 00:08:22;;;;;;;10.43;5.60;;;;;;;13.61;100.00;-19520.66;5022679;28;20033;-67
2021/09/09 00:10:48;;;;;;;13.53;7.00;;;;;;;13.57;100.00;-19519.75;5022409;28;20072;-67
2021/09/09 00:13:13;;;;;;;11.97;5.87;;;;;;;13.62;100.00;-19521.06;5022434;28;20593;-67
2021/09/09 00:15:39;;;;;;;11.17;6.00;;;;;;;13.57;100.00;-19519.59;5022204;28;20029;-67
2021/09/09 00:18:05;;;;;;;14.40;6.17;;;;;;;13.70;100.00;-19523.03;5022275;28;20483;-67
2021/09/09 00:20:31;;;;;;;10.60;6.27;;;;;;;13.85;100.00;-19526.94;5022221;28;20063;-67
2021/09/09 00:22:56;;;;;;;14.40;7.10;;;;;;;13.95;100.00;-19529.44;5022420;28;20589;-67
2021/09/09 00:25:22;;;;;;;10.80;6.13;;;;;;;13.99;100.00;-19530.50;5022083;28;20044;-67
2021/09/09 00:27:47;;;;;;;14.37;7.50;;;;;;;14.00;100.00;-19530.75;5022269;28;20135;-67
2021/09/09 00:30:13;;;;;;;14.07;6.83;;;;;;;14.11;100.00;-19533.50;5021825;28;20025;-67
2021/09/09 00:32:38;;;;;;;12.67;6.67;;;;;;;14.23;100.00;-19536.66;5022263;28;20029;-67
2021/09/09 00:35:05;;;;;;;12.03;6.63;;;;;;;14.17;100.00;-19535.19;5022052;28;20207;-67
2021/09/09 00:37:30;;;;;;;11.13;5.80;;;;;;;14.03;100.00;-19531.66;5022138;28;20036;-67
2021/09/09 00:39:56;;;;;;;12.43;6.47;;;;;;;13.99;100.00;-19530.63;5022032;28;20029;-67
2021/09/09 00:42:21;;;;;;;14.63;6.60;;;;;;;14.06;100.00;-19532.47;5022010;28;20469;-69
2021/09/09 00:44:47;;;;;;;13.40;6.73;;;;;;;14.12;100.00;-19533.91;5021898;28;20025;-69
2021/09/09 00:47:12;;;;;;;12.70;6.20;;;;;;;14.14;100.00;-19534.41;5021882;28;20193;-69
2021/09/09 00:49:41;;;;;;;13.33;6.37;;;;;;;14.03;100.00;-19531.66;5021522;28;20036;-69
2021/09/09 00:52:07;;;;;;;12.07;6.13;;;;;;;13.97;100.00;-19530.09;5021507;28;20277;-69
2021/09/09 00:54:33;;;;;;;12.97;6.13;;;;;;;13.93;100.00;-19529.06;5021588;28;20052;-69
2021/09/09 00:57:01;;;;;;;12.43;6.23;;;;;;;13.90;100.00;-19528.25;5021777;28;20025;-69
2021/09/09 00:59:27;;;;;;;19.27;6.97;;;;;;;13.92;100.00;-19528.66;5021407;28;20037;-69
2021/09/09 01:01:53;;;;;;;16.33;7.07;;;;;;;13.97;100.00;-19529.97;5020754;28;20278;-69
2021/09/09 01:04:20;;;;;;;13.67;7.27;;;;;;;14.02;100.00;-19531.41;5020488;28;20061;-69
2021/09/09 01:06:47;;;;;;;13.77;7.17;;;;;;;14.10;100.00;-19533.38;5021288;28;20037;-69
2021/09/09 01:09:13;;;;;;;15.80;7.10;;;;;;;14.13;100.00;-19534.16;5021254;28;20529;-69
2021/09/09 01:11:38;;;;;;;14.13;7.40;;;;;;;14.14;100.00;-19534.41;5021585;28;20037;-69
2021/09/09 01:14:12;;;;;;;12.73;6.60;;;;;;;14.14;100.00;-19534.28;5021499;28;20379;-69
2021/09/09 01:16:39;;;;;;;16.13;7.83;;;;;;;14.12;100.00;-19533.75;5001117;28;20515;-68
2021/09/09 01:19:06;;;;;;;15.77;7.43;;;;;;;14.08;100.00;-19532.97;5009195;28;20507;-68
2021/09/09 01:21:32;;;;;;;14.93;6.87;;;;;;;14.08;100.00;-19532.97;5041229;28;20032;-68
2021/09/09 01:23:59;;;;;;;16.23;7.80;;;;;;;14.07;100.00;-19532.72;5041314;28;20067;-69
2021/09/09 01:26:29;;;;;;;14.37;6.70;;;;;;;14.08;100.00;-19532.97;5040925;28;20482;-69
2021/09/09 01:28:57;;;;;;;17.90;7.37;;;;;;;14.14;100.00;-19534.28;5041116;28;20572;-69
2021/09/09 01:31:23;;;;;;;14.23;6.70;;;;;;;14.18;100.00;-19535.34;5040794;28;20264;-69
2021/09/09 01:33:54;;;;;;;14.93;7.37;;;;;;;14.25;100.00;-19537.16;5041143;28;20370;-67
2021/09/09 01:36:20;;;;;;;17.45;7.88;;;;;;;14.27;100.00;-19537.69;5040872;28;20031;-67
2021/09/09 01:38:46;;;;;;;15.17;8.10;;;;;;;14.27;100.00;-19537.69;5041008;28;20413;-68
2021/09/09 01:41:11;;;;;;;16.57;7.53;;;;;;;14.30;100.00;-19538.47;5040613;28;20021;-68
2021/09/09 01:43:37;;;;;;;15.33;7.67;;;;;;;14.31;100.00;-19538.75;5041148;28;20025;-67
2021/09/09 01:46:02;;;;;;;14.53;7.90;;;;;;;14.40;100.00;-19540.97;5040718;28;20092;-68
2021/09/09 01:48:28;;;;;;;15.33;7.43;;;;;;;14.44;100.00;-19542.03;5040819;28;20031;-67
2021/09/09 01:50:53;;;;;;;14.17;7.23;;;;;;;14.37;100.00;-19540.31;5026113;28;20061;-67
2021/09/09 01:53:19;;;;;;;18.53;8.23;;;;;;;14.33;100.00;-19539.28;5021035;28;20037;-67
2021/09/09 01:55:44;;;;;;;14.77;7.77;;;;;;;14.34;100.00;-19539.66;5020912;28;20053;-67
2021/09/09 01:58:10;;;;;;;15.77;7.50;;;;;;;14.26;100.00;-19537.44;5020783;28;20300;-68
2021/09/09 02:00:35;;;;;;;14.73;8.17;;;;;;;14.25;100.00;-19537.31;5020468;28;20037;-67
2021/09/09 02:03:01;;;;;;;18.73;7.97;;;;;;;14.22;100.00;-19536.50;5020282;28;20053;-67
2021/09/09 02:05:26;;;;;;;16.30;7.70;;;;;;;14.23;100.00;-19536.66;5021311;28;20039;-67
2021/09/09 02:07:52;;;;;;;14.83;7.40;;;;;;;14.23;100.00;-19536.66;5020639;28;20052;-67
2021/09/09 02:10:20;;;;;;;17.27;8.10;;;;;;;14.21;100.00;-19536.13;5020336;28;20116;-67
2021/09/09 02:12:49;;;;;;;15.63;7.73;;;;;;;14.25;100.00;-19537.16;5020756;28;20036;-67
2021/09/09 02:15:16;;;;;;;14.83;8.07;;;;;;;14.25;100.00;-19537.16;5020477;28;20108;-67
2021/09/09 02:17:42;;;;;;;16.97;7.67;;;;;;;14.27;100.00;-19537.69;5020580;28;20032;-67
2021/09/09 02:20:08;;;;;;;15.53;8.30;;;;;;;14.34;100.00;-19539.53;5020248;28;20033;-67
2021/09/09 02:22:34;;;;;;;16.87;8.80;;;;;;;14.34;100.00;-19539.66;5020595;28;20036;-68
2021/09/09 02:25:00;;;;;;;17.00;8.27;;;;;;;14.31;100.00;-19538.88;5020468;28;20033;-68
2021/09/09 02:27:25;;;;;;;17.63;8.97;;;;;;;14.27;100.00;-19537.69;5019244;28;20029;-67
2021/09/09 02:29:54;;;;;;;19.10;8.70;;;;;;;14.28;100.00;-19538.09;5020193;28;20108;-67
2021/09/09 02:32:23;;;;;;;17.00;8.70;;;;;;;14.30;100.00;-19538.47;5020209;28;20105;-67
2021/09/09 02:34:48;;;;;;;18.93;8.23;;;;;;;14.28;100.00;-19538.09;5020112;28;20037;-67
2021/09/09 02:37:14;;;;;;;19.53;8.27;;;;;;;14.24;100.00;-19536.91;5020060;28;20505;-68
2021/09/09 02:39:42;;;;;;;16.33;8.50;;;;;;;14.17;100.00;-19535.06;5019996;28;20083;-67
2021/09/09 02:42:08;;;;;;;19.37;8.67;;;;;;;14.13;100.00;-19534.03;5020014;28;20052;-67
2021/09/09 02:44:34;;;;;;;18.10;8.90;;;;;;;14.12;100.00;-19533.91;5020186;28;20025;-68
2021/09/09 02:46:59;;;;;;;16.87;8.53;;;;;;;14.07;100.00;-19532.72;5020047;28;20045;-68
2021/09/09 02:49:25;;;;;;;18.33;8.43;;;;;;;14.04;100.00;-19531.94;5019834;28;20041;-67
2021/09/09 02:51:50;;;;;;;17.63;9.13;;;;;;;14.02;100.00;-19531.41;5020413;28;20063;-67
2021/09/09 02:54:16;;;;;;;16.70;8.97;;;;;;;14.01;100.00;-19531.16;5020679;28;20029;-67
2021/09/09 02:56:41;;;;;;;17.70;9.30;;;;;;;13.99;100.00;-19530.63;5019958;28;20494;-67
2021/09/09 02:59:07;;;;;;;18.30;8.57;;;;;;;13.92;100.00;-19528.78;5019921;28;20467;-67
2021/09/09 03:01:33;;;;;;;17.90;8.30;;;;;;;13.90;100.00;-19528.25;5019736;28;20026;-67
2021/09/09 03:03:58;;;;;;;20.33;9.90;;;;;;;13.90;100.00;-19528.25;5019888;28;20045;-67
2021/09/09 03:06:25;;;;;;;19.97;9.50;;;;;;;13.88;100.00;-19527.75;5019845;28;20534;-67
2021/09/09 03:08:50;;;;;;;18.17;8.70;;;;;;;13.87;100.00;-19527.47;5019982;28;20025;-67
2021/09/09 03:11:16;;;;;;;18.77;9.23;;;;;;;13.85;100.00;-19526.94;5019912;28;20029;-67
2021/09/09 03:13:41;;;;;;;19.60;9.70;;;;;;;13.83;100.00;-19526.44;5019785;28;20418;-67
2021/09/09 03:16:07;;;;;;;21.43;9.60;;;;;;;13.84;100.00;-19526.69;5019533;28;20250;-67
2021/09/09 03:18:32;;;;;;;18.10;9.33;;;;;;;13.86;100.00;-19527.22;5019604;28;20083;-67
2021/09/09 03:20:58;;;;;;;21.30;9.27;;;;;;;13.86;100.00;-19527.22;5019831;28;20468;-67
2021/09/09 03:23:24;;;;;;;20.63;9.07;;;;;;;13.85;100.00;-19526.94;5019646;28;20030;-67
2021/09/09 03:25:49;;;;;;;18.27;9.53;;;;;;;13.83;100.00;-19526.28;5019643;28;20120;-67
2021/09/09 03:28:15;;;;;;;19.57;9.70;;;;;;;13.85;100.00;-19526.94;5019687;28;20030;-67
2021/09/09 03:30:40;;;;;;;20.87;9.80;;;;;;;13.83;100.00;-19526.44;5019260;28;20518;-67
2021/09/09 03:33:06;;;;;;;24.27;9.57;;;;;;;13.82;100.00;-19526.16;5019846;28;20029;-67
2021/09/09 03:35:31;;;;;;;18.70;9.43;;;;;;;13.82;100.00;-19526.16;5019615;28;20034;-67
2021/09/09 03:37:57;;;;;;;21.57;9.93;;;;;;;13.88;100.00;-19527.75;5019671;28;20251;-67
2021/09/09 03:40:22;;;;;;;20.23;10.00;;;;;;;13.84;100.00;-19526.69;5023101;28;20033;-67
2021/09/09 03:42:48;;;;;;;17.77;9.40;;;;;;;13.85;100.00;-19526.81;5023572;28;20037;-67
2021/09/09 03:45:13;;;;;;;19.63;9.90;;;;;;;13.82;100.00;-19526.16;5023482;28;20526;-67
2021/09/09 03:47:39;;;;;;;21.03;10.13;;;;;;;13.75;100.00;-19524.47;5023454;28;20029;-67
2021/09/09 03:50:05;;;;;;;20.80;10.43;;;;;;;13.75;100.00;-19524.31;5022926;28;20029;-67
2021/09/09 03:52:31;;;;;;;24.83;10.67;;;;;;;13.71;100.00;-19523.28;5023488;28;20037;-67
2021/09/09 03:54:56;;;;;;;20.77;10.50;;;;;;;13.71;100.00;-19523.28;5023252;28;20033;-67
2021/09/09 03:57:23;;;;;;;20.27;10.77;;;;;;;13.70;100.00;-19523.03;5023009;28;20022;-67
2021/09/09 03:59:49;;;;;;;19.70;9.80;;;;;;;13.71;100.00;-19523.41;5022946;28;20080;-67
2021/09/09 04:02:15;;;;;;;19.83;10.03;;;;;;;13.70;100.00;-19523.16;5023019;28;20064;-67
2021/09/09 04:04:41;;;;;;;22.57;10.40;;;;;;;13.62;100.00;-19520.91;5023045;28;20045;-67
2021/09/09 04:07:06;;;;;;;21.40;10.27;;;;;;;13.63;100.00;-19521.31;5023142;28;20041;-67
2021/09/09 04:09:32;;;;;;;22.80;10.27;;;;;;;13.56;100.00;-19519.47;5022697;28;20024;-66
2021/09/09 04:11:58;;;;;;;19.37;9.57;;;;;;;13.52;100.00;-19518.44;5023001;28;20029;-67
2021/09/09 04:14:23;;;;;;;23.57;10.67;;;;;;;13.47;100.00;-19517.25;5022775;28;20041;-67
2021/09/09 04:16:49;;;;;;;20.07;10.50;;;;;;;13.47;100.00;-19517.25;5022631;28;20126;-67
2021/09/09 04:19:14;;;;;;;23.03;11.20;;;;;;;13.44;100.00;-19516.31;5022633;28;20037;-67
2021/09/09 04:21:40;;;;;;;21.90;11.27;;;;;;;13.46;100.00;-19517.00;5022689;28;20044;-67
2021/09/09 04:24:05;;;;;;;27.13;10.93;;;;;;;13.41;100.00;-19515.69;5022527;28;20604;-67
2021/09/09 04:26:31;;;;;;;23.40;11.07;;;;;;;13.34;100.00;-19513.72;5022593;28;20029;-67
2021/09/09 04:28:56;;;;;;;24.47;10.97;;;;;;;13.35;100.00;-19513.97;5022591;28;20060;-67
2021/09/09 04:31:22;;;;;;;20.13;10.40;;;;;;;13.33;100.00;-19513.44;5022222;28;20064;-67
2021/09/09 04:33:47;;;;;;;22.60;11.57;;;;;;;13.37;100.00;-19514.63;5022475;28;20058;-67
2021/09/09 04:36:13;;;;;;;22.17;10.37;;;;;;;13.34;100.00;-19513.84;5022036;28;20541;-66
2021/09/09 04:38:38;;;;;;;26.27;12.10;;;;;;;13.34;100.00;-19513.84;5022476;28;20038;-67
2021/09/09 04:41:04;;;;;;;22.13;11.40;;;;;;;13.33;100.00;-19513.56;5022025;28;20068;-67
2021/09/09 04:43:29;;;;;;;24.87;11.43;;;;;;;13.32;100.00;-19513.19;5022302;28;20099;-67
2021/09/09 04:45:55;;;;;;;25.87;11.70;;;;;;;13.23;100.00;-19510.94;5022125;28;20029;-67
2021/09/09 04:48:20;;;;;;;31.83;12.10;;;;;;;13.17;100.00;-19509.38;5022391;28;20025;-67
2021/09/09 04:50:46;;;;;;;25.87;12.47;;;;;;;13.13;100.00;-19508.31;5020894;28;20025;-67
2021/09/09 04:53:11;;;;;;;24.33;11.93;;;;;;;13.08;100.00;-19507.00;5022617;28;20107;-67
2021/09/09 04:55:37;;;;;;;25.07;12.17;;;;;;;13.02;100.00;-19505.56;5021780;28;20033;-67
2021/09/09 04:58:03;;;;;;;28.37;11.90;;;;;;;12.97;100.00;-19504.25;5022016;28;20033;-67
2021/09/09 05:00:28;;;;;;;27.00;11.87;;;;;;;13.03;100.00;-19505.69;5021776;28;20029;-67
2021/09/09 05:02:54;;;;;;;23.57;11.77;;;;;;;13.07;100.00;-19506.75;5022183;28;20051;-67
2021/09/09 05:05:19;;;;;;;26.10;12.13;;;;;;;13.08;100.00;-19507.00;5021784;28;20040;-67
2021/09/09 05:07:45;;;;;;;26.50;12.23;;;;;;;13.09;100.00;-19507.28;5021879;28;20421;-67
2021/09/09 05:10:11;;;;;;;27.60;12.00;;;;;;;13.09;100.00;-19507.28;5021776;28;20790;-67
2021/09/09 05:12:36;;;;;;;24.53;12.07;;;;;;;13.12;100.00;-19508.06;5022032;28;20029;-67
2021/09/09 05:15:02;;;;;;;26.83;12.53;;;;;;;13.14;100.00;-19508.59;5021695;28;20048;-67
2021/09/09 05:17:28;;;;;;;28.90;11.67;;;;;;;13.22;100.00;-19510.56;5021782;28;20187;-67
2021/09/09 05:19:53;;;;;;;24.60;12.47;;;;;;;13.27;100.00;-19512.00;5021324;28;20030;-67
2021/09/09 05:22:19;;;;;;;27.43;12.70;;;;;;;13.32;100.00;-19513.31;5021461;28;20036;-67
2021/09/09 05:24:44;;;;;;;28.37;12.33;;;;;;;13.37;100.00;-19514.63;5021356;28;20064;-67
2021/09/09 05:27:10;;;;;;;29.30;11.97;;;;;;;13.41;100.00;-19515.53;5021503;28;20184;-67
2021/09/09 05:29:35;;;;;;;26.43;11.83;;;;;;;13.49;100.00;-19517.78;5021689;28;20100;-67
2021/09/09 05:32:01;;;;;;;25.60;12.67;;;;;;;13.57;100.00;-19519.75;5021523;28;20440;-67
2021/09/09 05:34:26;;;;;;;24.90;12.13;;;;;;;13.66;100.00;-19521.97;5021278;28;20029;-67
2021/09/09 05:36:52;;;;;;;24.40;11.87;;;;;;;13.77;100.00;-19524.84;5021383;28;20036;-67
2021/09/09 05:39:17;;;;;;;24.23;11.60;;;;;;;13.91;100.00;-19528.53;5021026;28;20044;-67
2021/09/09 05:41:43;;;;;;;25.67;11.30;;;;;;;14.07;100.00;-19532.59;5021509;28;20025;-67
2021/09/09 05:44:08;;;;;;;22.67;11.00;;;;;;;14.16;100.00;-19534.81;5021288;28;20032;-67
2021/09/09 05:46:34;;;;;;;24.13;11.80;;;;;;;14.29;100.00;-19538.22;5040829;28;20680;-67
2021/09/09 05:48:59;;;;;;;20.40;10.50;;;;;;;14.40;100.00;-19541.09;5041111;28;20281;-67
2021/09/09 05:51:25;;;;;;;22.33;10.93;;;;;;;14.79;100.00;-19551.19;5028418;28;20055;-67
2021/09/09 05:53:50;;;;;;;20.43;9.37;;;;;;;15.68;100.00;-19574.09;5021002;28;20088;-67
2021/09/09 05:56:16;;;;;;;18.27;9.10;;;;;;;16.49;100.00;-19594.75;5020964;28;20190;-67
2021/09/09 05:58:41;;;;;;;17.30;8.90;;;;;;;16.98;100.00;-19607.56;5020621;28;20514;-67
2021/09/09 06:01:07;;;;;;;18.70;8.50;;;;;;;17.09;100.00;-19610.16;5020020;28;20063;-67
2021/09/09 06:03:35;;;;;;;17.20;8.63;;;;;;;17.01;100.00;-19608.06;5020666;28;20505;-67
2021/09/09 06:06:04;;;;;;;18.77;8.43;;;;;;;17.42;100.00;-19618.78;5020293;28;20064;-68
2021/09/09 06:08:36;;;;;;;17.73;8.33;;;;;;;17.71;100.00;-19626.22;5020915;28;20021;-68
2021/09/09 06:11:01;;;;;;;16.53;7.90;;;;;;;17.96;100.00;-19632.59;5020704;28;20025;-68
2021/09/09 06:13:27;;;;;;;16.97;7.97;;;;;;;18.16;100.00;-19637.81;5021322;28;20548;-69
2021/09/09 06:15:53;;;;;;;15.30;7.80;;;;;;;18.36;100.00;-19642.91;5021259;28;20044;-69
2021/09/09 06:18:18;;;;;;;15.50;7.83;;;;;;;18.71;100.00;-19651.91;5021292;28;20463;-69
2021/09/09 06:20:45;;;;;;;16.27;7.40;;;;;;;18.85;100.00;-19655.41;5022293;28;20386;-70
2021/09/09 06:23:11;;;;;;;14.57;7.93;;;;;;;18.99;100.00;-19658.94;5022609;28;20570;-70
2021/09/09 06:25:36;;;;;;;16.52;7.53;;;;;;;19.15;100.00;-19663.09;5022351;28;20093;-70
2021/09/09 06:28:02;;;;;;;17.25;8.15;;;;;;;19.53;100.00;-19672.84;5023115;28;20559;-71
2021/09/09 06:30:30;;;;;;;14.63;7.35;;;;;;;19.63;100.00;-19675.34;5022552;28;20029;-70
2021/09/09 06:32:59;;;;;;;14.07;6.78;;;;;;;20.28;100.00;-19691.97;5023179;28;20032;-71
2021/09/09 06:35:25;;;;;;;14.30;7.18;;;;;;;20.41;100.00;-19695.22;5033364;28;20036;-71
2021/09/09 06:37:50;;;;;;;15.63;6.88;;;;;;;20.63;100.00;-19700.97;5042596;28;20033;-70
2021/09/09 06:40:16;;;;;;;13.15;6.85;;;;;;;20.79;100.00;-19704.97;5040970;28;20705;-70
2021/09/09 06:42:41;;;;;;;17.10;7.40;;;;;;;20.58;100.00;-19699.53;5042392;28;20129;-71
2021/09/09 06:45:07;;;;;;;14.65;6.82;;;;;;;20.84;100.00;-19706.16;5042496;28;20115;-71
2021/09/09 06:47:33;;;;;;;18.00;6.40;;;;;;;20.95;100.00;-19709.00;5042985;28;20103;-72
2021/09/09 06:49:58;;;;;;;13.45;7.18;;;;;;;21.02;100.00;-19710.81;5036174;28;20129;-71
2021/09/09 06:52:24;;;;;;;13.55;6.95;;;;;;;21.48;100.00;-19722.66;5022989;28;20261;-71
2021/09/09 06:54:50;;;;;;;15.32;6.68;;;;;;;21.63;100.00;-19726.53;5023289;28;20025;-71
2021/09/09 06:57:15;;;;;;;16.08;7.10;;;;;;;21.85;100.00;-19732.13;5023455;28;20088;-71
2021/09/09 06:59:42;;;;;;;12.93;7.13;;;;;;;22.39;100.00;-19745.72;5022939;28;20040;-71
2021/09/09 07:02:07;;;;;;;13.82;7.28;;;;;;;22.93;100.00;-19759.47;5022962;28;20025;-71
2021/09/09 07:04:33;;;;;;;11.80;6.68;;;;;;;23.16;100.00;-19765.31;5022669;28;20038;-71
2021/09/09 07:06:58;;;;;;;14.38;7.43;;;;;;;23.35;100.00;-19770.34;5021772;28;20025;-70
2021/09/09 07:09:24;;;;;;;12.60;6.63;;;;;;;23.71;100.00;-19779.28;5021858;28;20024;-70
2021/09/09 07:11:49;;;;;;;14.90;6.07;;;;;;;24.07;100.00;-19788.47;5021015;28;20101;-69
2021/09/09 07:14:15;;;;;;;12.85;6.65;;;;;;;24.26;100.00;-19793.38;5019649;28;20434;-69
2021/09/09 07:16:40;;;;;;;12.48;6.70;;;;;;;24.46;98.11;-19798.56;5019978;28;20037;-68
2021/09/09 07:19:06;;;;;;;15.90;6.75;;;;;;;23.84;100.00;-19782.78;5019392;28;20107;-68
2021/09/09 07:21:31;;;;;;;11.80;6.50;;;;;;;23.79;100.00;-19781.34;5019923;28;20033;-68
2021/09/09 07:23:57;;;;;;;14.50;6.82;;;;;;;23.62;100.00;-19777.09;5019700;28;20030;-69
2021/09/09 07:26:22;;;;;;;14.73;6.50;;;;;;;23.98;100.00;-19786.28;5019782;28;20044;-70
2021/09/09 07:28:48;;;;;;;14.07;6.72;;;;;;;24.57;100.00;-19801.28;5020363;28;20029;-71
2021/09/09 07:31:13;;;;;;;11.85;6.57;;;;;;;24.82;95.47;-19807.59;5039342;28;20098;-71
2021/09/09 07:33:39;;;;;;;13.63;6.82;;;;;;;24.70;97.33;-19804.50;5043316;28;20049;-72
2021/09/09 07:36:07;;;;;;;10.75;5.93;;;;;;;25.02;96.37;-19812.78;5044412;28;20062;-73
2021/09/09 07:38:34;;;;;;;12.45;6.03;;;;;;;24.81;92.04;-19807.34;5044618;28;20064;-73
2021/09/09 07:40:59;;;;;;;13.13;5.85;;;;;;;24.88;93.58;-19809.16;5029410;28;20026;-73
2021/09/09 07:43:25;;;;;;;10.82;5.57;;;;;;;25.06;88.63;-19813.81;5023712;28;20021;-73
2021/09/09 07:45:50;;;;;;;12.15;6.18;;;;;;;24.84;88.22;-19808.25;5023348;28;20466;-73
2021/09/09 07:48:16;;;;;;;14.13;6.05;;;;;;;25.24;90.18;-19818.31;5024716;28;20022;-73
2021/09/09 07:50:44;;;;;;;11.32;6.00;;;;;;;25.38;87.15;-19821.81;5031998;28;20029;-74
2021/09/09 07:53:10;;;;;;;9.07;5.07;;;;;;;25.51;85.07;-19825.16;5025455;28;20096;-74
2021/09/09 07:55:35;;;;;;;12.00;6.07;;;;;;;26.06;82.71;-19839.09;5025260;28;20478;-74
2021/09/09 07:58:01;;;;;;;10.65;5.88;;;;;;;26.08;74.34;-19839.63;5023843;28;20091;-71
2021/09/09 08:00:26;;;;;;;9.48;5.20;;;;;;;26.11;74.89;-19840.38;5021708;28;20037;-73
2021/09/09 08:02:53;;;;;;;10.38;5.72;;;;;;;26.19;77.20;-19842.44;5022788;28;20045;-73
2021/09/09 08:05:18;;;;;;;10.90;5.20;;;;;;;26.64;77.56;-19853.78;5024946;28;20124;-73
2021/09/09 08:07:47;;;;;;;9.90;5.55;;;;;;;26.79;76.26;-19857.66;5024688;28;20017;-73
2021/09/09 08:10:14;;;;;;;12.02;5.35;;;;;;;26.61;75.20;-19852.91;5024147;28;20018;-73
2021/09/09 08:12:42;;;;;;;8.60;4.78;;;;;;;26.32;74.86;-19845.53;5023854;28;20022;-73
2021/09/09 08:15:08;;;;;;;9.18;5.18;;;;;;;26.39;75.98;-19847.34;5022762;28;20033;-73
2021/09/09 08:17:34;;;;;;;9.90;4.90;;;;;;;26.55;72.84;-19851.47;5022352;28;20194;-73
2021/09/09 08:20:00;;;;;;;9.30;4.95;;;;;;;26.58;75.93;-19852.25;5022176;28;20030;-73
2021/09/09 08:22:26;;;;;;;12.25;5.20;;;;;;;26.95;73.42;-19861.66;5023689;28;20060;-73
2021/09/09 08:24:53;;;;;;;11.02;4.63;;;;;;;27.25;69.92;-19869.25;5023724;28;20449;-73
2021/09/09 08:27:19;;;;;;;9.40;4.93;;;;;;;26.87;69.47;-19859.72;5024804;28;20026;-73
2021/09/09 08:29:44;;;;;;;9.73;4.70;;;;;;;26.88;68.65;-19859.97;5024463;28;20171;-73
2021/09/09 08:32:11;;;;;;;9.48;4.50;;;;;;;27.44;68.13;-19874.16;5026348;28;20422;-73
2021/09/09 08:34:37;;;;;;;11.45;5.35;;;;;;;27.37;66.32;-19872.34;5024976;28;20021;-72
2021/09/09 08:37:03;;;;;;;8.35;4.60;;;;;;;27.21;65.69;-19868.09;5023764;28;20036;-72
2021/09/09 08:39:28;;;;;;;8.25;4.60;;;;;;;27.47;65.00;-19874.66;5023847;28;20402;-72
2021/09/09 08:41:54;;;;;;;13.00;5.07;;;;;;;27.52;62.59;-19876.06;5023653;28;20071;-72
2021/09/09 08:44:21;;;;;;;7.93;4.25;;;;;;;26.94;64.46;-19861.25;5023251;28;20481;-72
2021/09/09 08:46:46;;;;;;;8.25;4.38;;;;;;;27.49;62.10;-19875.16;5023787;28;20021;-72
2021/09/09 08:49:12;;;;;;;9.57;4.35;;;;;;;27.67;63.11;-19879.94;5023803;28;20056;-72
2021/09/09 08:51:37;;;;;;;8.00;4.22;;;;;;;27.93;61.96;-19886.50;5023957;28;20401;-72
2021/09/09 08:54:04;;;;;;;11.90;3.97;;;;;;;27.99;60.48;-19887.91;5024179;28;20052;-73
2021/09/09 08:56:29;;;;;;;11.40;3.97;;;;;;;27.72;60.46;-19881.09;5023233;28;20600;-73
2021/09/09 08:58:57;;;;;;;11.40;4.47;;;;;;;28.38;59.23;-19897.81;5024890;28;20145;-74
2021/09/09 09:01:22;;;;;;;8.55;4.57;;;;;;;28.70;56.11;-19905.78;5024621;28;20498;-74
2021/09/09 09:03:53;;;;;;;8.85;4.38;;;;;;;28.55;58.20;-19902.19;5023365;28;20538;-73
2021/09/09 09:06:37;;;;;;;12.80;4.07;;;;;;;29.19;55.28;-19918.34;5042875;28;20028;-74
2021/09/09 09:09:09;;;;;;;9.50;4.13;;;;;;;29.89;53.03;-19935.94;5044718;28;20053;-73
2021/09/09 09:11:38;;;;;;;12.23;4.28;;;;;;;30.04;52.79;-19939.66;5005711;28;20025;-73
2021/09/09 09:14:07;;;;;;;7.22;3.78;;;;;;;29.95;52.79;-19937.34;5003802;28;20048;-74
2021/09/09 09:16:33;;;;;;;10.32;4.35;;;;;;;30.04;54.65;-19939.66;5026038;28;20355;-74
2021/09/09 09:18:59;;;;;;;9.52;4.45;;;;;;;30.02;51.51;-19939.25;5022944;28;20028;-73
2021/09/09 09:21:26;;;;;;;10.20;4.50;;;;;;;29.84;50.89;-19934.53;5021878;28;20021;-73
2021/09/09 09:23:57;;;;;;;7.60;4.18;;;;;;;29.58;53.39;-19928.13;5022200;28;20025;-72
2021/09/09 09:26:23;;;;;;;7.20;3.67;;;;;;;29.28;55.07;-19920.41;5022766;28;20040;-73
2021/09/09 09:28:51;;;;;;;8.60;4.20;;;;;;;29.04;54.48;-19914.38;5022034;28;20671;-73
2021/09/09 09:31:22;;;;;;;11.93;4.75;;;;;;;29.65;52.82;-19929.91;5023111;28;20033;-73
2021/09/09 09:33:56;;;;;;;7.25;4.00;;;;;;;30.43;51.61;-19949.41;5023807;28;20567;-73
2021/09/09 09:36:34;;;;;;;8.95;4.20;;;;;;;29.73;51.64;-19931.84;5021996;28;20029;-73
2021/09/09 09:39:14;;;;;;;9.15;3.92;;;;;;;29.93;51.78;-19936.84;5021376;28;20036;-71
2021/09/09 09:41:55;;;;;;;8.87;4.47;;;;;;;29.31;52.26;-19921.19;5001727;28;20422;-70
2021/09/09 09:44:29;;;;;;;8.40;4.20;;;;;;;29.24;52.92;-19919.38;5005857;28;20448;-71
2021/09/09 09:47:09;;;;;;;8.02;3.83;;;;;;;29.49;51.13;-19925.81;5040968;28;20133;-69
2021/09/09 09:49:37;;;;;;;9.77;4.57;;;;;;;29.15;52.95;-19917.34;5040475;28;20025;-68
2021/09/09 09:52:04;;;;;;;8.20;4.20;;;;;;;28.83;54.06;-19909.09;5023473;28;20029;-68
2021/09/09 09:54:30;;;;;;;15.95;4.25;;;;;;;28.96;55.66;-19912.47;5020921;28;20360;-68
2021/09/09 09:56:57;;;;;;;8.10;4.10;;;;;;;29.50;53.48;-19926.06;5020832;28;20025;-68
2021/09/09 09:59:23;;;;;;;6.97;3.70;;;;;;;29.63;53.01;-19929.41;5020553;28;20021;-68
2021/09/09 10:01:49;;;;;;;8.55;4.20;;;;;;;30.17;51.48;-19943.00;5020734;28;20029;-68
2021/09/09 10:04:17;;;;;;;11.32;4.20;;;;;;;30.00;51.58;-19938.75;5020645;28;20058;-67
2021/09/09 10:06:45;;;;;;;8.00;4.13;;;;;;;30.15;53.03;-19942.34;5020494;28;20029;-67
2021/09/09 10:09:12;;;;;;;7.22;3.85;;;;;;;29.82;52.41;-19934.13;5020350;28;20504;-67
2021/09/09 10:11:39;;;;;;;8.15;4.15;;;;;;;30.09;52.09;-19940.94;5020603;28;20033;-67
2021/09/09 10:14:05;;;;;;;7.60;4.13;;;;;;;29.93;50.74;-19936.84;5020616;28;20414;-67
2021/09/09 10:16:36;;;;;;;7.95;4.10;;;;;;;29.77;51.25;-19932.97;5020558;28;20021;-67
2021/09/09 10:19:02;;;;;;;6.35;3.55;;;;;;;29.71;50.80;-19931.44;5020307;28;20025;-67
2021/09/09 10:21:46;;;;;;;7.45;4.20;;;;;;;29.52;50.37;-19926.56;5020291;28;20037;-67
2021/09/09 10:24:28;;;;;;;6.95;4.05;;;;;;;29.37;51.66;-19922.72;5020533;28;20383;-67
2021/09/09 10:27:34;;;;;;;7.30;4.10;;;;;;;29.80;52.13;-19933.50;5020174;28;20041;-67
2021/09/09 10:30:04;;;;;;;9.98;4.10;;;;;;;29.32;52.82;-19921.44;5020177;28;20021;-67
2021/09/09 10:32:52;;;;;;;7.18;4.20;;;;;;;28.45;55.99;-19899.47;5020206;28;20032;-67
2021/09/09 10:35:33;;;;;;;9.30;4.15;;;;;;;27.34;59.74;-19871.44;5019916;28;20420;-67
2021/09/09 10:38:39;;;;;;;8.10;4.40;;;;;;;26.65;63.25;-19854.06;5020036;28;20033;-67
2021/09/09 10:41:04;;;;;;;9.05;4.43;;;;;;;26.45;69.75;-19849.03;5019819;28;20052;-67
2021/09/09 10:43:50;;;;;;;10.18;5.38;;;;;;;26.11;73.10;-19840.38;5020198;28;20025;-67
2021/09/09 10:46:17;;;;;;;10.13;4.68;;;;;;;25.92;76.81;-19835.50;5019734;28;20113;-67
2021/09/09 10:48:45;;;;;;;13.85;5.50;;;;;;;25.90;78.72;-19835.09;5019378;28;20486;-67
2021/09/09 10:51:15;;;;;;;10.90;5.30;;;;;;;26.08;79.10;-19839.63;5019603;28;20032;-67
2021/09/09 10:53:59;;;;;;;13.55;5.22;;;;;;;26.05;78.79;-19838.72;5020026;28;20549;-67
2021/09/09 10:56:34;;;;;;;11.23;5.60;;;;;;;26.15;79.06;-19841.41;5019954;28;20030;-67
2021/09/09 10:59:15;;;;;;;13.63;6.00;;;;;;;26.15;81.03;-19841.41;5019569;28;20039;-67
2021/09/09 11:01:44;;;;;;;10.00;5.60;;;;;;;26.37;79.40;-19846.84;5000192;28;20371;-67
2021/09/09 11:04:33;;;;;;;8.68;5.25;;;;;;;26.37;78.71;-19846.97;4999978;28;20041;-67
2021/09/09 11:07:00;;;;;;;10.48;5.05;;;;;;;26.13;78.01;-19840.91;5019738;28;20033;-67
2021/09/09 11:09:26;;;;;;;9.57;5.25;;;;;;;26.14;79.70;-19841.16;5019556;28;20071;-68
2021/09/09 11:12:05;;;;;;;9.45;5.00;;;;;;;26.33;77.40;-19845.94;5019385;28;20029;-68